createdAt,value
2023-02-08T00:02:11.427Z,16.80
2023-02-08T00:04:38.747Z,14.37
2023-02-08T00:07:06.158Z,13.87
2023-02-08T00:09:33.511Z,15.00
2023-02-08T00:12:01.017Z,15.40
2023-02-08T00:14:28.364Z,15.23
2023-02-08T00:16:55.698Z,15.57
2023-02-08T00:19:23.122Z,14.00
2023-02-08T00:21:50.436Z,13.70
2023-02-08T00:24:17.713Z,13.73
2023-02-08T00:26:45.028Z,15.93
2023-02-08T00:29:12.442Z,16.00
2023-02-08T00:31:40.024Z,14.10
2023-02-08T00:34:07.417Z,15.23
2023-02-08T00:36:34.783Z,16.17
2023-02-08T00:39:02.177Z,13.97
2023-02-08T00:41:29.535Z,14.40
2023-02-08T00:43:56.921Z,14.53
2023-02-08T00:46:24.327Z,14.87
2023-02-08T00:48:51.720Z,17.47
2023-02-08T00:51:19.113Z,16.57
2023-02-08T00:53:46.891Z,15.50
2023-02-08T00:56:16.032Z,13.63
2023-02-08T00:58:44.044Z,15.37
2023-02-08T01:01:12.058Z,14.07
2023-02-08T01:03:40.718Z,16.50
2023-02-08T01:06:09.251Z,15.20
2023-02-08T01:08:37.051Z,18.00
2023-02-08T01:11:06.314Z,16.57
2023-02-08T01:13:34.401Z,14.63
2023-02-08T01:16:06.480Z,16.77
2023-02-08T01:18:33.854Z,15.03
2023-02-08T01:21:05.329Z,17.20
2023-02-08T01:23:32.670Z,16.30
2023-02-08T01:26:00.032Z,15.40
2023-02-08T01:28:27.414Z,19.33
2023-02-08T01:30:54.860Z,15.43
2023-02-08T01:33:22.377Z,14.23
2023-02-08T01:35:53.860Z,14.73
2023-02-08T01:38:21.331Z,17.10
2023-02-08T01:40:48.702Z,16.23
2023-02-08T01:43:21.208Z,16.50
2023-02-08T01:45:48.702Z,17.30
2023-02-08T01:48:25.157Z,16.13
2023-02-08T01:50:59.122Z,15.73
2023-02-08T01:53:27.242Z,15.90
2023-02-08T01:55:56.626Z,15.50
2023-02-08T01:58:25.063Z,18.43
2023-02-08T02:00:52.556Z,14.90
2023-02-08T02:03:21.507Z,15.90
2023-02-08T02:05:51.556Z,17.17
2023-02-08T02:08:19.362Z,14.77
2023-02-08T02:10:49.256Z,17.77
2023-02-08T02:13:21.658Z,16.43
2023-02-08T02:15:49.464Z,16.30
2023-02-08T02:18:27.562Z,16.83
2023-02-08T02:20:57.900Z,17.10
2023-02-08T02:23:42.724Z,18.50
2023-02-08T02:26:18.800Z,17.57
2023-02-08T02:28:49.137Z,17.47
2023-02-08T02:31:32.576Z,19.07
2023-02-08T02:34:06.354Z,17.33
2023-02-08T02:36:33.716Z,18.53
2023-02-08T02:39:24.648Z,17.97
2023-02-08T02:42:22.754Z,16.63
2023-02-08T02:45:08.066Z,19.67
2023-02-08T02:47:55.922Z,17.70
2023-02-08T02:50:38.774Z,19.17
2023-02-08T02:53:25.935Z,18.73
2023-02-08T02:55:57.212Z,18.87
2023-02-08T02:58:24.729Z,18.37
2023-02-08T03:00:56.071Z,17.27
2023-02-08T03:03:24.630Z,17.50
2023-02-08T03:05:53.602Z,16.67
2023-02-08T03:08:29.713Z,17.47
2023-02-08T03:11:00.043Z,18.67
2023-02-08T03:13:43.449Z,18.80
2023-02-08T03:16:17.125Z,17.87
2023-02-08T03:18:52.171Z,19.23
2023-02-08T03:21:24.708Z,16.93
2023-02-08T03:24:01.297Z,17.67
2023-02-08T03:26:31.744Z,18.47
2023-02-08T03:29:03.121Z,18.83
2023-02-08T03:31:30.504Z,15.40
2023-02-08T03:34:01.748Z,19.43
2023-02-08T03:36:29.338Z,19.00
2023-02-08T03:38:56.990Z,17.80
2023-02-08T03:41:28.232Z,15.37
2023-02-08T03:44:04.458Z,20.30
2023-02-08T03:46:34.623Z,19.23
2023-02-08T03:49:04.660Z,19.40
2023-02-08T03:51:33.693Z,16.23
2023-02-08T03:54:03.368Z,17.63
2023-02-08T03:56:43.550Z,20.43
2023-02-08T03:59:14.629Z,17.57
2023-02-08T04:01:47.011Z,18.47
2023-02-08T04:04:15.156Z,23.00
2023-02-08T04:06:42.518Z,19.00
2023-02-08T04:09:09.823Z,18.83
2023-02-08T04:22:08.897Z,20.43
2023-02-08T04:24:36.334Z,20.43
2023-02-08T04:27:05.836Z,18.23
2023-02-08T04:29:33.602Z,18.93
2023-02-08T04:32:01.091Z,18.43
2023-02-08T04:34:28.871Z,17.80
2023-02-08T04:36:57.004Z,20.30
2023-02-08T04:39:24.502Z,19.87
2023-02-08T04:41:51.974Z,20.60
2023-02-08T04:44:19.479Z,20.53
2023-02-08T04:46:46.874Z,19.97
2023-02-08T04:49:14.495Z,19.40
2023-02-08T04:51:42.057Z,21.63
2023-02-08T04:54:09.527Z,20.80
2023-02-08T04:56:37.367Z,18.77
2023-02-08T04:59:05.770Z,19.77
2023-02-08T05:01:33.408Z,22.87
2023-02-08T05:04:00.921Z,20.77
2023-02-08T05:06:28.382Z,21.17
2023-02-08T05:08:55.837Z,22.37
2023-02-08T05:11:24.292Z,18.57
2023-02-08T05:13:51.956Z,23.17
2023-02-08T05:16:19.749Z,21.17
2023-02-08T05:18:47.214Z,22.50
2023-02-08T05:21:14.697Z,22.73
2023-02-08T05:23:42.205Z,22.63
2023-02-08T05:26:10.267Z,26.03
2023-02-08T05:28:38.149Z,21.70
2023-02-08T05:31:18.235Z,22.47
2023-02-08T05:33:45.760Z,20.10
2023-02-08T05:36:13.372Z,24.47
2023-02-08T05:38:41.027Z,23.07
2023-02-08T05:41:08.467Z,27.60
2023-02-08T05:43:36.257Z,27.40
2023-02-08T05:46:04.172Z,27.47
2023-02-08T05:48:32.242Z,24.83
2023-02-08T05:50:59.800Z,20.93
2023-02-08T05:53:27.704Z,25.90
2023-02-08T05:55:55.194Z,25.80
2023-02-08T05:58:22.685Z,23.97
2023-02-08T06:00:50.203Z,24.17
2023-02-08T06:03:19.720Z,22.63
2023-02-08T06:05:47.210Z,26.00
2023-02-08T06:08:14.679Z,22.83
2023-02-08T06:10:42.348Z,25.77
2023-02-08T06:13:09.890Z,23.73
2023-02-08T06:15:37.345Z,25.67
2023-02-08T06:18:04.867Z,28.13
2023-02-08T06:20:32.262Z,26.93
2023-02-08T06:22:59.805Z,21.90
2023-02-08T06:25:27.212Z,23.40
2023-02-08T06:27:57.253Z,24.17
2023-02-08T06:30:25.107Z,23.53
2023-02-08T06:32:52.903Z,23.73
2023-02-08T06:35:20.682Z,22.40
2023-02-08T06:37:48.191Z,25.00
2023-02-08T06:40:15.634Z,22.20
2023-02-08T06:42:43.203Z,22.60
2023-02-08T06:45:13.550Z,24.80
2023-02-08T06:47:41.182Z,23.13
2023-02-08T06:50:09.281Z,25.20
2023-02-08T06:52:36.920Z,24.83
2023-02-08T06:55:04.743Z,23.90
2023-02-08T06:57:32.181Z,24.97
2023-02-08T06:59:59.604Z,23.13
2023-02-08T07:02:27.816Z,22.60
2023-02-08T07:04:55.319Z,23.23
2023-02-08T07:07:22.820Z,24.80
2023-02-08T07:09:50.308Z,25.00
2023-02-08T07:12:17.818Z,23.53
2023-02-08T07:14:45.252Z,22.80
2023-02-08T07:17:13.122Z,22.73
2023-02-08T07:19:41.086Z,23.40
2023-02-08T07:22:08.682Z,24.47
2023-02-08T07:24:40.109Z,22.63
2023-02-08T07:27:08.587Z,24.30
2023-02-08T07:29:36.194Z,25.27
2023-02-08T07:32:04.646Z,25.13
2023-02-08T07:34:33.664Z,24.80
2023-02-08T07:37:01.275Z,23.27
2023-02-08T07:39:31.021Z,22.93
2023-02-08T07:41:58.797Z,21.90
2023-02-08T07:44:29.801Z,27.80
2023-02-08T07:46:57.278Z,24.57
2023-02-08T07:49:24.758Z,23.00
2023-02-08T07:51:52.247Z,25.87
2023-02-08T07:54:19.730Z,28.00
2023-02-08T07:56:47.201Z,26.63
2023-02-08T07:59:14.864Z,27.97
2023-02-08T08:01:42.358Z,26.37
2023-02-08T08:04:09.883Z,24.60
2023-02-08T08:06:37.374Z,27.20
2023-02-08T08:09:05.878Z,32.37
2023-02-08T08:11:33.367Z,28.67
2023-02-08T08:14:00.843Z,29.63
2023-02-08T08:16:28.343Z,31.03
2023-02-08T08:18:55.879Z,27.70
2023-02-08T08:21:23.336Z,35.67
2023-02-08T08:23:50.874Z,30.10
2023-02-08T08:26:20.131Z,28.13
2023-02-08T08:28:47.746Z,32.03
2023-02-08T08:31:16.593Z,31.73
2023-02-08T08:33:44.457Z,31.17
2023-02-08T08:36:12.067Z,31.33
2023-02-08T08:38:41.035Z,33.47
2023-02-08T08:41:17.258Z,33.57
2023-02-08T08:43:44.949Z,31.97
2023-02-08T08:46:12.467Z,32.80
2023-02-08T08:48:40.065Z,27.63
2023-02-08T08:51:08.146Z,35.43
2023-02-08T08:53:37.120Z,30.67
2023-02-08T08:56:04.884Z,29.27
2023-02-08T08:58:32.354Z,30.07
2023-02-08T09:01:00.510Z,33.17
2023-02-08T09:03:28.770Z,30.60
2023-02-08T09:05:56.704Z,28.77
2023-02-08T09:08:24.335Z,33.53
2023-02-08T09:10:51.830Z,31.13
2023-02-08T09:13:20.100Z,27.90
2023-02-08T09:15:48.243Z,33.83
2023-02-08T09:18:15.842Z,30.77
2023-02-08T09:20:43.876Z,30.17
2023-02-08T09:23:11.496Z,31.47
2023-02-08T09:25:39.035Z,31.80
2023-02-08T09:28:07.210Z,28.30
2023-02-08T09:30:34.738Z,32.53
2023-02-08T09:33:02.211Z,32.33
2023-02-08T09:35:29.845Z,33.13
2023-02-08T09:37:58.301Z,30.67
2023-02-08T09:40:27.291Z,33.07
2023-02-08T09:43:04.904Z,31.07
2023-02-08T09:46:01.899Z,27.07
2023-02-08T09:48:39.784Z,29.67
2023-02-08T09:51:23.875Z,29.13
2023-02-08T09:53:54.205Z,29.47
2023-02-08T09:56:24.994Z,28.33
2023-02-08T09:58:53.599Z,33.90
2023-02-08T10:01:23.471Z,30.77
2023-02-08T10:03:52.883Z,32.33
2023-02-08T10:06:21.277Z,34.37
2023-02-08T10:08:50.243Z,31.90
2023-02-08T10:11:38.085Z,32.93
2023-02-08T10:14:24.155Z,33.57
2023-02-08T10:17:03.614Z,30.93
2023-02-08T10:19:31.041Z,28.77
2023-02-08T10:22:18.088Z,30.77
2023-02-08T10:25:08.769Z,31.60
2023-02-08T10:27:55.136Z,29.77
2023-02-08T10:30:28.573Z,29.13
2023-02-08T10:33:00.413Z,33.00
2023-02-08T10:35:37.217Z,29.07
2023-02-08T10:38:14.038Z,33.27
2023-02-08T10:40:42.155Z,31.87
2023-02-08T10:43:12.672Z,29.67
2023-02-08T10:45:43.521Z,30.73
2023-02-08T10:48:15.788Z,28.70
2023-02-08T10:50:44.228Z,28.17
2023-02-08T10:53:15.571Z,31.70
2023-02-08T10:55:44.911Z,28.87
2023-02-08T10:58:17.871Z,32.33
2023-02-08T11:00:45.829Z,30.63
2023-02-08T11:03:18.979Z,33.70
2023-02-08T11:05:46.509Z,31.70
2023-02-08T11:08:19.601Z,28.53
2023-02-08T11:10:57.817Z,30.20
2023-02-08T11:13:25.972Z,31.20
2023-02-08T11:15:56.180Z,30.27
2023-02-08T11:18:25.982Z,28.73
2023-02-08T11:20:56.077Z,27.80
2023-02-08T11:23:31.014Z,29.60
2023-02-08T11:26:15.596Z,28.20
2023-02-08T11:28:43.519Z,30.43
2023-02-08T11:31:21.489Z,28.13
2023-02-08T11:34:09.296Z,27.13
2023-02-08T11:36:38.108Z,28.03
2023-02-08T11:39:17.234Z,27.13
2023-02-08T11:41:49.561Z,28.83
2023-02-08T11:44:37.334Z,28.10
2023-02-08T11:47:06.716Z,28.27
2023-02-08T11:49:38.702Z,26.43
2023-02-08T11:52:08.306Z,29.77
2023-02-08T11:54:41.385Z,29.00
2023-02-08T11:57:19.690Z,29.00
2023-02-08T11:59:48.146Z,28.17
2023-02-08T12:02:28.140Z,30.97
2023-02-08T12:04:55.965Z,29.43
2023-02-08T12:07:42.000Z,26.97
2023-02-08T12:10:12.676Z,27.03
2023-02-08T12:12:54.578Z,25.20
2023-02-08T12:15:22.132Z,27.77
2023-02-08T12:17:52.588Z,25.63
2023-02-08T12:20:23.473Z,24.53
2023-02-08T12:23:03.463Z,25.00
2023-02-08T12:25:40.948Z,21.77
2023-02-08T12:28:17.434Z,25.77
2023-02-08T12:30:52.419Z,24.23
2023-02-08T12:33:36.943Z,22.00
2023-02-08T12:36:05.576Z,26.87
2023-02-08T12:39:18.858Z,26.37
2023-02-08T12:42:05.386Z,22.93
2023-02-08T12:44:38.162Z,22.90
2023-02-08T12:47:14.779Z,25.10
2023-02-08T12:49:42.282Z,25.00
2023-02-08T12:52:12.812Z,23.83
2023-02-08T12:54:43.901Z,26.07
2023-02-08T12:57:15.759Z,24.73
2023-02-08T13:00:01.694Z,25.47
2023-02-08T13:02:43.434Z,24.37
2023-02-08T13:05:16.038Z,27.23
2023-02-08T13:07:44.417Z,21.70
2023-02-08T13:10:14.700Z,23.57
2023-02-08T13:12:49.434Z,23.00
2023-02-08T13:15:30.706Z,23.53
2023-02-08T13:18:00.123Z,30.70
2023-02-08T13:20:41.873Z,23.40
2023-02-08T13:23:24.428Z,19.93
2023-02-08T13:25:53.437Z,25.30
2023-02-08T13:28:22.718Z,25.87
2023-02-08T13:30:59.514Z,22.57
2023-02-08T13:33:31.132Z,20.37
2023-02-08T13:35:58.825Z,19.20
2023-02-08T13:38:29.275Z,24.53
2023-02-08T13:41:23.193Z,23.03
2023-02-08T13:43:53.237Z,22.13
2023-02-08T13:46:21.396Z,22.77
2023-02-08T13:48:50.582Z,22.03
2023-02-08T13:51:33.382Z,20.87
2023-02-08T13:54:01.057Z,20.00
2023-02-08T13:56:37.748Z,20.70
2023-02-08T13:59:06.139Z,22.93
2023-02-08T14:01:35.486Z,21.07
2023-02-08T14:04:08.939Z,21.57
2023-02-08T14:06:38.414Z,18.73
2023-02-08T14:09:22.377Z,18.67
2023-02-08T14:11:51.825Z,20.17
2023-02-08T14:14:21.602Z,21.70
2023-02-08T14:17:07.764Z,21.33
2023-02-08T14:19:36.934Z,20.40
2023-02-08T14:22:16.266Z,20.80
2023-02-08T14:24:49.662Z,21.00
2023-02-08T14:27:22.630Z,20.13
2023-02-08T14:30:16.218Z,21.73
2023-02-08T14:32:46.072Z,20.67
2023-02-08T14:35:18.255Z,20.77
2023-02-08T14:37:46.444Z,23.10
2023-02-08T14:40:25.146Z,21.67
2023-02-08T14:43:11.568Z,22.30
2023-02-08T14:45:40.091Z,22.53
2023-02-08T14:48:10.645Z,20.20
2023-02-08T14:50:40.468Z,22.63
2023-02-08T14:53:14.068Z,19.67
2023-02-08T14:55:46.329Z,20.00
2023-02-08T14:58:16.697Z,21.87
2023-02-08T15:00:45.668Z,21.37
2023-02-08T15:03:15.751Z,21.33
2023-02-08T15:05:47.331Z,20.60
2023-02-08T15:08:21.093Z,21.50
2023-02-08T15:10:48.690Z,22.37
2023-02-08T15:13:21.326Z,20.67
2023-02-08T15:15:52.005Z,21.90
2023-02-08T15:18:20.899Z,21.43
2023-02-08T15:20:57.609Z,21.87
2023-02-08T15:23:25.447Z,21.13
2023-02-08T15:26:00.643Z,20.83
2023-02-08T15:28:29.570Z,21.27
2023-02-08T15:31:01.618Z,20.50
2023-02-08T15:33:29.318Z,22.10
2023-02-08T15:36:06.411Z,21.37
2023-02-08T15:38:34.956Z,19.57
2023-02-08T15:41:02.659Z,23.77
2023-02-08T15:43:30.504Z,22.20
2023-02-08T15:46:02.684Z,22.07
2023-02-08T15:48:30.772Z,20.80
2023-02-08T15:50:58.674Z,21.67
2023-02-08T15:53:27.128Z,23.00
2023-02-08T15:55:56.918Z,22.90
2023-02-08T15:58:30.843Z,23.00
2023-02-08T16:00:59.726Z,19.97
2023-02-08T16:03:28.460Z,21.03
2023-02-08T16:05:57.645Z,24.17
2023-02-08T16:08:31.355Z,21.67
2023-02-08T16:11:21.870Z,22.90
2023-02-08T16:13:51.483Z,23.00
2023-02-08T16:16:24.105Z,22.63
2023-02-08T16:19:01.891Z,21.60
2023-02-08T16:21:29.427Z,24.27
2023-02-08T16:23:58.881Z,22.90
2023-02-08T16:26:28.822Z,24.23
2023-02-08T16:28:56.624Z,23.30
2023-02-08T16:31:28.384Z,23.97
2023-02-08T16:34:04.274Z,23.27
2023-02-08T16:36:40.691Z,22.83
2023-02-08T16:39:18.001Z,25.80
2023-02-08T16:42:06.449Z,24.67
2023-02-08T16:44:57.938Z,23.10
2023-02-08T16:47:27.395Z,21.50
2023-02-08T16:49:54.922Z,25.83
2023-02-08T16:52:22.481Z,23.93
2023-02-08T16:54:50.031Z,22.33
2023-02-08T16:57:17.449Z,24.13
2023-02-08T16:59:44.923Z,24.13
2023-02-08T17:02:13.133Z,24.80
2023-02-08T17:04:40.994Z,20.27
2023-02-08T17:07:17.367Z,25.43
2023-02-08T17:09:44.971Z,23.70
2023-02-08T17:12:21.927Z,22.27
2023-02-08T17:14:50.446Z,22.00
2023-02-08T17:17:17.995Z,24.23
2023-02-08T17:19:47.068Z,24.10
2023-02-08T17:22:14.547Z,20.97
2023-02-08T17:24:42.063Z,23.23
2023-02-08T17:27:12.584Z,22.40
2023-02-08T17:29:40.262Z,25.43
2023-02-08T17:32:07.956Z,22.90
2023-02-08T17:34:36.705Z,23.70
2023-02-08T17:37:04.244Z,23.23
2023-02-08T17:39:31.729Z,21.97
2023-02-08T17:41:59.253Z,20.17
2023-02-08T17:44:26.732Z,24.53
2023-02-08T17:46:54.223Z,23.67
2023-02-08T17:49:21.656Z,23.50
2023-02-08T17:51:49.152Z,24.73
2023-02-08T17:54:17.086Z,25.13
2023-02-08T17:56:44.610Z,23.90
2023-02-08T17:59:12.257Z,24.67
2023-02-08T18:01:39.986Z,23.07
2023-02-08T18:04:09.399Z,24.37
2023-02-08T18:06:36.914Z,22.87
2023-02-08T18:09:04.492Z,19.87
2023-02-08T18:11:31.935Z,22.73
2023-02-08T18:14:00.598Z,24.60
2023-02-08T18:16:28.700Z,23.60
2023-02-08T18:18:57.075Z,23.67
2023-02-08T18:21:25.916Z,27.17
2023-02-08T18:23:55.398Z,22.67
2023-02-08T18:26:24.094Z,23.70
2023-02-08T18:28:52.339Z,24.40
2023-02-08T18:31:20.438Z,25.23
2023-02-08T18:33:48.935Z,24.70
2023-02-08T18:36:17.077Z,22.80
2023-02-08T18:38:48.387Z,25.03
2023-02-08T18:41:21.370Z,22.13
2023-02-08T18:43:49.178Z,21.67
2023-02-08T18:46:18.485Z,24.03
2023-02-08T18:48:46.627Z,23.33
2023-02-08T18:51:16.278Z,24.70
2023-02-08T18:53:43.806Z,23.27
2023-02-08T18:56:13.193Z,28.30
2023-02-08T18:58:41.171Z,26.37
2023-02-08T19:01:11.059Z,24.23
2023-02-08T19:03:38.667Z,25.13
2023-02-08T19:06:06.927Z,24.13
2023-02-08T19:08:40.355Z,23.80
2023-02-08T19:11:15.282Z,23.13
2023-02-08T19:13:42.976Z,24.40
2023-02-08T19:16:10.501Z,20.43
2023-02-08T19:18:38.010Z,21.70
2023-02-08T19:21:09.564Z,24.53
2023-02-08T19:23:37.507Z,25.53
2023-02-08T19:26:05.939Z,29.37
2023-02-08T19:28:34.064Z,26.73
2023-02-08T19:31:10.008Z,24.60
2023-02-08T19:33:41.303Z,24.70
2023-02-08T19:36:13.506Z,24.27
2023-02-08T19:38:41.061Z,26.13
2023-02-08T19:41:10.459Z,22.60
2023-02-08T19:43:37.931Z,22.20
2023-02-08T19:46:10.071Z,24.77
2023-02-08T19:48:37.596Z,22.23
2023-02-08T19:51:05.471Z,22.03
2023-02-08T19:53:33.375Z,25.90
2023-02-08T19:56:03.059Z,22.93
2023-02-08T19:58:31.260Z,24.60
2023-02-08T20:00:59.061Z,24.73
2023-02-08T20:03:26.696Z,24.87
2023-02-08T20:05:54.684Z,24.10
2023-02-08T20:08:26.375Z,24.90
2023-02-08T20:10:55.395Z,23.07
2023-02-08T20:13:23.184Z,24.43
2023-02-08T20:15:50.946Z,24.10
2023-02-08T20:18:22.056Z,22.53
2023-02-08T20:20:59.479Z,22.23
2023-02-08T20:23:27.056Z,20.27
2023-02-08T20:26:11.709Z,19.73
2023-02-08T20:28:40.091Z,22.00
2023-02-08T20:31:11.566Z,21.20
2023-02-08T20:33:39.572Z,22.77
2023-02-08T20:36:08.213Z,18.33
2023-02-08T20:38:36.935Z,19.83
2023-02-08T20:41:08.703Z,18.77
2023-02-08T20:43:36.278Z,19.77
2023-02-08T20:46:08.272Z,22.40
2023-02-08T20:48:35.935Z,20.77
2023-02-08T20:51:10.952Z,19.27
2023-02-08T20:53:39.500Z,18.87
2023-02-08T20:56:10.887Z,18.10
2023-02-08T20:58:38.809Z,19.30
2023-02-08T21:01:10.479Z,18.27
2023-02-08T21:03:38.400Z,19.30
2023-02-08T21:06:32.220Z,18.67
2023-02-08T21:09:01.034Z,20.77
2023-02-08T21:11:30.379Z,19.17
2023-02-08T21:13:58.326Z,20.57
2023-02-08T21:16:26.532Z,17.83
2023-02-08T21:18:54.090Z,19.63
2023-02-08T21:21:21.753Z,19.43
2023-02-08T21:23:49.313Z,20.63
2023-02-08T21:26:19.568Z,19.33
2023-02-08T21:28:47.446Z,21.37
2023-02-08T21:31:18.155Z,20.23
2023-02-08T21:33:46.008Z,18.50
2023-02-08T21:36:14.632Z,17.40
2023-02-08T21:38:42.671Z,18.90
2023-02-08T21:41:11.377Z,20.60
2023-02-08T21:43:39.014Z,18.37
2023-02-08T21:46:07.341Z,17.90
2023-02-08T21:48:54.917Z,18.43
2023-02-08T21:51:42.256Z,15.80
2023-02-08T21:54:36.169Z,16.53
2023-02-08T21:57:04.365Z,15.90
2023-02-08T21:59:39.499Z,17.97
2023-02-08T22:02:22.528Z,18.57
2023-02-08T22:04:51.099Z,18.33
2023-02-08T22:07:19.423Z,15.57
2023-02-08T22:09:47.150Z,14.40
2023-02-08T22:12:15.699Z,17.20
2023-02-08T22:14:43.253Z,17.23
2023-02-08T22:17:11.409Z,16.47
2023-02-08T22:19:42.885Z,14.27
2023-02-08T22:22:11.335Z,16.73
2023-02-08T22:24:38.882Z,16.27
2023-02-08T22:27:06.545Z,16.63
2023-02-08T22:29:34.085Z,14.67
2023-02-08T22:32:01.762Z,16.80
2023-02-08T22:34:29.535Z,17.27
2023-02-08T22:36:57.035Z,15.30
2023-02-08T22:39:24.543Z,16.83
2023-02-08T22:41:52.421Z,15.37
2023-02-08T22:44:19.914Z,16.77
2023-02-08T22:46:47.372Z,16.70
2023-02-08T22:49:14.834Z,14.13
2023-02-08T22:51:42.344Z,15.67
2023-02-08T22:54:09.786Z,14.43
2023-02-08T22:56:37.297Z,16.67
2023-02-08T22:59:04.764Z,14.00
2023-02-08T23:01:32.241Z,14.80
2023-02-08T23:04:00.754Z,17.50
2023-02-08T23:06:28.407Z,16.57
2023-02-08T23:08:55.876Z,16.87
2023-02-08T23:11:23.497Z,18.17
2023-02-08T23:13:51.209Z,17.00
2023-02-08T23:16:19.691Z,15.37
2023-02-08T23:18:47.223Z,17.40
2023-02-08T23:21:18.407Z,17.03
2023-02-08T23:23:46.846Z,16.17
2023-02-08T23:26:15.894Z,16.47
2023-02-08T23:28:43.778Z,16.10
2023-02-08T23:31:12.541Z,15.57
2023-02-08T23:33:40.369Z,16.17
2023-02-08T23:36:08.507Z,16.27
2023-02-08T23:38:35.991Z,18.77
2023-02-08T23:41:04.630Z,17.77
2023-02-08T23:43:32.301Z,19.80
2023-02-08T23:45:59.781Z,17.17
2023-02-08T23:48:27.287Z,18.80
2023-02-08T23:51:01.339Z,17.30
2023-02-08T23:53:30.512Z,16.87
2023-02-08T23:56:04.077Z,17.70
2023-02-08T23:58:31.590Z,18.00
